METAR Data
IDs: Format: Raw Decoded Include TAF

Data at: 2106 UTC 21 Sep 2018

METAR for:GCLA (La Palma Arpt, --, CR)
Text:GCLA 212100Z AUTO 36008KT 9999 OVC032/// 23/17 Q1019
Temperature: 23.0°C ( 73°F)
Dewpoint: 17.0°C ( 63°F) [RH = 69%]
Pressure (altimeter):30.09 inches Hg (1019.0 mb)
Winds:from the N (360 degrees) at 9 MPH (8 knots; 4.1 m/s)
Visibility:6 or more sm (10+ km)
Ceiling:3200 feet AGL
Clouds: overcast cloud deck at 3200 feet AGL